TimePDT,TemperatureF,Dew PointF,Humidity,Sea Level PressureIn,VisibilityMPH,Wind Direction,Wind SpeedMPH,Gust SpeedMPH,PrecipitationIn,Events,Conditions,WindDirDegrees,DateUTC
12:58 AM,58.3,50.9,76,30.13,10.0,SW,4.6,-,N/A,,Overcast,220,2013-06-17 07:58:00
1:58 AM,57.2,51.1,80,30.12,10.0,SE,5.8,-,N/A,,Overcast,130,2013-06-17 08:58:00
2:58 AM,57.2,51.3,81,30.10,10.0,South,4.6,-,N/A,,Overcast,170,2013-06-17 09:58:00
3:58 AM,57.4,51.1,79,30.09,10.0,SSW,4.6,-,N/A,,Overcast,210,2013-06-17 10:58:00
4:58 AM,57.0,51.3,81,30.09,10.0,SSW,5.8,-,N/A,,Overcast,210,2013-06-17 11:58:00
5:58 AM,56.7,51.6,83,30.09,10.0,South,4.6,-,N/A,,Overcast,180,2013-06-17 12:58:00
6:53 AM,57.2,51.8,82,30.08,10.0,South,5.8,-,N/A,,Overcast,170,2013-06-17 13:53:00
6:58 AM,57.2,51.8,82,30.08,10.0,SSW,4.6,-,N/A,,Overcast,210,2013-06-17 13:58:00
7:18 AM,59.0,51.8,77,30.08,10.0,South,3.5,-,N/A,,Overcast,190,2013-06-17 14:18:00
7:33 AM,59.0,51.8,77,30.08,10.0,SSW,2.3,-,N/A,,Mostly Cloudy,200,2013-06-17 14:33:00
7:38 AM,59.0,51.8,77,30.08,10.0,Variable,4.6,-,N/A,,Mostly Cloudy,0,2013-06-17 14:38:00
7:58 AM,59.4,51.8,76,30.09,10.0,Variable,3.5,-,N/A,,Partly Cloudy,0,2013-06-17 14:58:00
8:33 AM,60.8,51.8,72,30.08,10.0,East,3.5,-,N/A,,Mostly Cloudy,90,2013-06-17 15:33:00
8:58 AM,61.0,52.0,72,30.09,10.0,ESE,4.6,-,N/A,,Overcast,120,2013-06-17 15:58:00
9:08 AM,60.8,51.8,72,30.08,10.0,SSE,3.5,-,N/A,,Overcast,150,2013-06-17 16:08:00
9:58 AM,63.0,52.3,68,30.07,10.0,ESE,3.5,-,N/A,,Scattered Clouds,120,2013-06-17 16:58:00
10:28 AM,66.2,51.8,60,30.06,10.0,Variable,3.5,-,N/A,,Mostly Cloudy,0,2013-06-17 17:28:00
10:58 AM,65.1,52.2,63,30.06,10.0,Variable,1.2,-,N/A,,Mostly Cloudy,0,2013-06-17 17:58:00
11:58 AM,67.8,52.9,59,30.05,10.0,SE,3.5,-,N/A,,Scattered Clouds,130,2013-06-17 18:58:00
12:58 PM,70.9,52.9,53,30.03,10.0,Variable,2.3,-,N/A,,Overcast,0,2013-06-17 19:58:00
1:58 PM,72.7,52.9,50,30.01,10.0,Variable,4.6,-,N/A,,Mostly Cloudy,0,2013-06-17 20:58:00
2:58 PM,74.1,52.5,47,29.99,10.0,West,11.5,-,N/A,,Mostly Cloudy,280,2013-06-17 21:58:00
3:58 PM,73.6,50.9,45,29.97,10.0,NW,8.1,-,N/A,,Scattered Clouds,320,2013-06-17 22:58:00
4:58 PM,73.4,50.0,44,29.95,10.0,Variable,1.2,-,N/A,,Scattered Clouds,0,2013-06-17 23:58:00
5:58 PM,74.8,49.6,41,29.94,10.0,WNW,17.3,-,N/A,,Scattered Clouds,300,2013-06-18 00:58:00
6:56 PM,68.0,55.4,64,29.94,10.0,West,17.3,-,N/A,Rain,Light Rain,260,2013-06-18 01:56:00
6:58 PM,68.0,55.4,64,29.95,10.0,West,19.6,24.2,N/A,Rain,Light Rain,260,2013-06-18 01:58:00
7:08 PM,68.0,53.6,60,29.94,10.0,West,18.4,26.5,N/A,,Scattered Clouds,280,2013-06-18 02:08:00
7:58 PM,62.6,48.2,59,29.98,10.0,West,15.0,24.2,0.00,,Clear,260,2013-06-18 02:58:00
8:40 PM,60.8,50.0,68,29.98,10.0,West,16.1,23.0,N/A,Rain,Light Rain,260,2013-06-18 03:40:00
8:58 PM,58.8,52.5,80,29.99,10.0,West,10.4,-,0.00,Rain,Light Rain,270,2013-06-18 03:58:00
9:10 PM,57.2,51.8,82,29.99,10.0,West,9.2,-,N/A,,Mostly Cloudy,280,2013-06-18 04:10:00
9:58 PM,57.2,53.2,87,30.02,10.0,West,5.8,-,0.00,,Overcast,260,2013-06-18 04:58:00
10:58 PM,56.1,52.9,89,30.01,10.0,SE,2.3,-,N/A,,Overcast,130,2013-06-18 05:58:00
11:58 PM,55.9,53.1,90,30.01,10.0,SSE,2.3,-,N/A,,Scattered Clouds,160,2013-06-18 06:58:00